sensor_id;sensor_type;location;lat;lon;timestamp;P1;durP1;ratioP1;P2;durP2;ratioP2
4420;SDS011;11824;51.178;13.546;2023-01-09T00:00:27;30.40;;;17.80;;
4420;SDS011;11824;51.178;13.546;2023-01-09T00:02:54;28.50;;;16.03;;
4420;SDS011;11824;51.178;13.546;2023-01-09T00:05:22;28.57;;;17.00;;
4420;SDS011;11824;51.178;13.546;2023-01-09T00:07:50;28.20;;;16.20;;
4420;SDS011;11824;51.178;13.546;2023-01-09T00:10:17;26.63;;;17.27;;
4420;SDS011;11824;51.178;13.546;2023-01-09T00:12:45;28.77;;;16.57;;
4420;SDS011;11824;51.178;13.546;2023-01-09T00:15:12;28.17;;;16.83;;
4420;SDS011;11824;51.178;13.546;2023-01-09T00:17:40;30.10;;;17.47;;
4420;SDS011;11824;51.178;13.546;2023-01-09T00:20:07;34.97;;;17.60;;
4420;SDS011;11824;51.178;13.546;2023-01-09T00:22:36;29.40;;;17.30;;
4420;SDS011;11824;51.178;13.546;2023-01-09T00:25:04;29.47;;;16.97;;
4420;SDS011;11824;51.178;13.546;2023-01-09T00:27:32;35.87;;;17.83;;
4420;SDS011;11824;51.178;13.546;2023-01-09T00:30:01;28.37;;;17.00;;
4420;SDS011;11824;51.178;13.546;2023-01-09T00:32:29;27.07;;;15.17;;
4420;SDS011;11824;51.178;13.546;2023-01-09T00:34:57;28.33;;;15.80;;
4420;SDS011;11824;51.178;13.546;2023-01-09T00:37:24;26.83;;;15.97;;
4420;SDS011;11824;51.178;13.546;2023-01-09T00:39:51;26.67;;;16.20;;
4420;SDS011;11824;51.178;13.546;2023-01-09T00:42:20;30.93;;;16.03;;
4420;SDS011;11824;51.178;13.546;2023-01-09T00:44:50;24.87;;;14.03;;
4420;SDS011;11824;51.178;13.546;2023-01-09T00:47:21;23.23;;;14.80;;
4420;SDS011;11824;51.178;13.546;2023-01-09T00:49:51;26.00;;;15.60;;
4420;SDS011;11824;51.178;13.546;2023-01-09T00:52:20;30.80;;;16.40;;
4420;SDS011;11824;51.178;13.546;2023-01-09T00:54:48;25.53;;;14.90;;
4420;SDS011;11824;51.178;13.546;2023-01-09T00:57:16;28.10;;;15.20;;
4420;SDS011;11824;51.178;13.546;2023-01-09T00:59:44;33.60;;;15.90;;
4420;SDS011;11824;51.178;13.546;2023-01-09T01:02:11;25.00;;;14.73;;
4420;SDS011;11824;51.178;13.546;2023-01-09T01:04:38;27.23;;;15.63;;
4420;SDS011;11824;51.178;13.546;2023-01-09T01:07:23;28.13;;;16.60;;
4420;SDS011;11824;51.178;13.546;2023-01-09T01:10:09;25.07;;;15.10;;
4420;SDS011;11824;51.178;13.546;2023-01-09T01:12:38;27.20;;;16.43;;
4420;SDS011;11824;51.178;13.546;2023-01-09T01:15:07;27.50;;;15.70;;
4420;SDS011;11824;51.178;13.546;2023-01-09T01:17:35;28.33;;;15.73;;
4420;SDS011;11824;51.178;13.546;2023-01-09T01:20:06;29.27;;;15.07;;
4420;SDS011;11824;51.178;13.546;2023-01-09T01:22:35;24.60;;;14.47;;
4420;SDS011;11824;51.178;13.546;2023-01-09T01:25:02;27.60;;;15.37;;
4420;SDS011;11824;51.178;13.546;2023-01-09T01:27:30;29.50;;;15.03;;
4420;SDS011;11824;51.178;13.546;2023-01-09T01:29:57;33.50;;;15.93;;
4420;SDS011;11824;51.178;13.546;2023-01-09T01:32:25;30.30;;;14.50;;
4420;SDS011;11824;51.178;13.546;2023-01-09T01:34:53;29.47;;;15.00;;
4420;SDS011;11824;51.178;13.546;2023-01-09T01:37:20;32.07;;;16.27;;
4420;SDS011;11824;51.178;13.546;2023-01-09T01:39:48;31.50;;;15.70;;
4420;SDS011;11824;51.178;13.546;2023-01-09T01:42:16;27.33;;;15.00;;
4420;SDS011;11824;51.178;13.546;2023-01-09T01:47:34;27.13;;;13.90;;
4420;SDS011;11824;51.178;13.546;2023-01-09T01:50:07;29.80;;;14.17;;
4420;SDS011;11824;51.178;13.546;2023-01-09T01:52:38;29.73;;;16.13;;
4420;SDS011;11824;51.178;13.546;2023-01-09T01:55:07;33.37;;;18.20;;
4420;SDS011;11824;51.178;13.546;2023-01-09T01:57:36;28.90;;;15.20;;
4420;SDS011;11824;51.178;13.546;2023-01-09T02:00:09;28.97;;;16.33;;
4420;SDS011;11824;51.178;13.546;2023-01-09T02:02:39;24.60;;;14.70;;
4420;SDS011;11824;51.178;13.546;2023-01-09T02:05:08;30.33;;;15.93;;
4420;SDS011;11824;51.178;13.546;2023-01-09T02:07:35;29.57;;;15.33;;
4420;SDS011;11824;51.178;13.546;2023-01-09T02:10:03;31.90;;;16.20;;
4420;SDS011;11824;51.178;13.546;2023-01-09T02:12:30;23.90;;;13.67;;
4420;SDS011;11824;51.178;13.546;2023-01-09T02:14:59;26.60;;;14.63;;
4420;SDS011;11824;51.178;13.546;2023-01-09T02:17:46;27.67;;;14.40;;
4420;SDS011;11824;51.178;13.546;2023-01-09T02:20:38;34.00;;;15.37;;
4420;SDS011;11824;51.178;13.546;2023-01-09T02:23:14;28.47;;;15.47;;
4420;SDS011;11824;51.178;13.546;2023-01-09T02:26:11;25.73;;;14.90;;
4420;SDS011;11824;51.178;13.546;2023-01-09T02:29:00;30.13;;;14.97;;
4420;SDS011;11824;51.178;13.546;2023-01-09T02:31:58;29.03;;;15.10;;
4420;SDS011;11824;51.178;13.546;2023-01-09T02:34:33;30.73;;;16.20;;
4420;SDS011;11824;51.178;13.546;2023-01-09T02:37:11;27.40;;;15.60;;
4420;SDS011;11824;51.178;13.546;2023-01-09T02:39:46;27.00;;;14.27;;
4420;SDS011;11824;51.178;13.546;2023-01-09T02:42:20;28.63;;;14.23;;
4420;SDS011;11824;51.178;13.546;2023-01-09T02:44:48;28.67;;;14.13;;
4420;SDS011;11824;51.178;13.546;2023-01-09T02:47:36;29.10;;;13.47;;
4420;SDS011;11824;51.178;13.546;2023-01-09T02:50:07;26.57;;;13.50;;
4420;SDS011;11824;51.178;13.546;2023-01-09T02:52:41;27.27;;;13.13;;
4420;SDS011;11824;51.178;13.546;2023-01-09T02:55:24;23.17;;;13.00;;
4420;SDS011;11824;51.178;13.546;2023-01-09T02:58:02;22.30;;;12.77;;
4420;SDS011;11824;51.178;13.546;2023-01-09T03:00:35;24.73;;;14.30;;
4420;SDS011;11824;51.178;13.546;2023-01-09T03:03:14;21.97;;;12.73;;
4420;SDS011;11824;51.178;13.546;2023-01-09T03:05:49;24.80;;;13.17;;
4420;SDS011;11824;51.178;13.546;2023-01-09T03:08:18;27.73;;;13.67;;
4420;SDS011;11824;51.178;13.546;2023-01-09T03:10:50;20.30;;;13.77;;
4420;SDS011;11824;51.178;13.546;2023-01-09T03:13:22;23.50;;;12.47;;
4420;SDS011;11824;51.178;13.546;2023-01-09T03:15:52;23.50;;;13.70;;
4420;SDS011;11824;51.178;13.546;2023-01-09T03:18:23;24.53;;;13.20;;
4420;SDS011;11824;51.178;13.546;2023-01-09T03:20:53;24.10;;;13.43;;
4420;SDS011;11824;51.178;13.546;2023-01-09T03:23:21;28.43;;;13.73;;
4420;SDS011;11824;51.178;13.546;2023-01-09T03:25:49;26.90;;;14.77;;
4420;SDS011;11824;51.178;13.546;2023-01-09T03:28:19;29.87;;;14.37;;
4420;SDS011;11824;51.178;13.546;2023-01-09T03:30:50;24.97;;;14.80;;
4420;SDS011;11824;51.178;13.546;2023-01-09T03:33:18;22.80;;;13.80;;
4420;SDS011;11824;51.178;13.546;2023-01-09T03:35:46;28.20;;;15.33;;
4420;SDS011;11824;51.178;13.546;2023-01-09T03:38:13;29.40;;;15.93;;
4420;SDS011;11824;51.178;13.546;2023-01-09T03:40:40;29.33;;;15.20;;
4420;SDS011;11824;51.178;13.546;2023-01-09T03:43:08;30.00;;;15.33;;
4420;SDS011;11824;51.178;13.546;2023-01-09T03:45:35;26.37;;;15.37;;
4420;SDS011;11824;51.178;13.546;2023-01-09T03:48:03;29.30;;;14.50;;
4420;SDS011;11824;51.178;13.546;2023-01-09T03:50:31;28.47;;;14.97;;
4420;SDS011;11824;51.178;13.546;2023-01-09T03:52:59;29.53;;;17.23;;
4420;SDS011;11824;51.178;13.546;2023-01-09T03:55:26;32.23;;;17.73;;
4420;SDS011;11824;51.178;13.546;2023-01-09T03:57:54;27.40;;;15.70;;
4420;SDS011;11824;51.178;13.546;2023-01-09T04:00:21;25.97;;;15.73;;
4420;SDS011;11824;51.178;13.546;2023-01-09T04:02:49;32.37;;;15.90;;
4420;SDS011;11824;51.178;13.546;2023-01-09T04:05:16;29.60;;;17.30;;
4420;SDS011;11824;51.178;13.546;2023-01-09T04:07:43;33.53;;;17.73;;
4420;SDS011;11824;51.178;13.546;2023-01-09T04:10:11;27.47;;;15.47;;
4420;SDS011;11824;51.178;13.546;2023-01-09T04:12:38;28.83;;;16.30;;
4420;SDS011;11824;51.178;13.546;2023-01-09T04:15:06;32.77;;;17.10;;
4420;SDS011;11824;51.178;13.546;2023-01-09T04:17:34;27.90;;;15.70;;
4420;SDS011;11824;51.178;13.546;2023-01-09T04:20:01;28.10;;;15.93;;
4420;SDS011;11824;51.178;13.546;2023-01-09T04:22:28;37.30;;;18.00;;
4420;SDS011;11824;51.178;13.546;2023-01-09T04:24:56;33.97;;;16.37;;
4420;SDS011;11824;51.178;13.546;2023-01-09T04:27:24;29.73;;;17.03;;
4420;SDS011;11824;51.178;13.546;2023-01-09T04:29:51;34.17;;;17.90;;
4420;SDS011;11824;51.178;13.546;2023-01-09T04:32:18;33.73;;;17.83;;
4420;SDS011;11824;51.178;13.546;2023-01-09T04:34:46;32.70;;;17.83;;
4420;SDS011;11824;51.178;13.546;2023-01-09T04:37:13;34.60;;;16.53;;
4420;SDS011;11824;51.178;13.546;2023-01-09T04:39:41;33.70;;;17.53;;
4420;SDS011;11824;51.178;13.546;2023-01-09T04:42:08;37.27;;;18.93;;
4420;SDS011;11824;51.178;13.546;2023-01-09T04:44:45;29.73;;;16.10;;
4420;SDS011;11824;51.178;13.546;2023-01-09T04:47:21;32.87;;;20.27;;
4420;SDS011;11824;51.178;13.546;2023-01-09T04:49:49;36.57;;;17.63;;
4420;SDS011;11824;51.178;13.546;2023-01-09T04:52:32;30.10;;;16.93;;
4420;SDS011;11824;51.178;13.546;2023-01-09T04:54:59;30.10;;;16.97;;
4420;SDS011;11824;51.178;13.546;2023-01-09T04:57:26;32.37;;;17.67;;
4420;SDS011;11824;51.178;13.546;2023-01-09T04:59:54;32.53;;;16.13;;
4420;SDS011;11824;51.178;13.546;2023-01-09T05:02:21;37.23;;;16.70;;
4420;SDS011;11824;51.178;13.546;2023-01-09T05:04:49;28.37;;;14.43;;
4420;SDS011;11824;51.178;13.546;2023-01-09T05:07:16;31.63;;;16.77;;
4420;SDS011;11824;51.178;13.546;2023-01-09T05:09:43;28.27;;;15.90;;
4420;SDS011;11824;51.178;13.546;2023-01-09T05:12:12;30.10;;;14.70;;
4420;SDS011;11824;51.178;13.546;2023-01-09T05:14:44;35.03;;;17.03;;
4420;SDS011;11824;51.178;13.546;2023-01-09T05:17:19;43.43;;;18.83;;
4420;SDS011;11824;51.178;13.546;2023-01-09T05:19:47;28.30;;;16.63;;
4420;SDS011;11824;51.178;13.546;2023-01-09T05:22:14;34.63;;;18.20;;
4420;SDS011;11824;51.178;13.546;2023-01-09T05:24:41;32.73;;;18.07;;
4420;SDS011;11824;51.178;13.546;2023-01-09T05:27:10;36.93;;;17.50;;
4420;SDS011;11824;51.178;13.546;2023-01-09T05:29:38;32.60;;;17.07;;
4420;SDS011;11824;51.178;13.546;2023-01-09T05:32:08;30.27;;;17.13;;
4420;SDS011;11824;51.178;13.546;2023-01-09T05:34:36;34.50;;;18.77;;
4420;SDS011;11824;51.178;13.546;2023-01-09T05:37:03;33.40;;;19.97;;
4420;SDS011;11824;51.178;13.546;2023-01-09T05:39:30;38.70;;;21.10;;
4420;SDS011;11824;51.178;13.546;2023-01-09T05:41:58;33.93;;;17.93;;
4420;SDS011;11824;51.178;13.546;2023-01-09T05:44:25;31.27;;;18.10;;
4420;SDS011;11824;51.178;13.546;2023-01-09T05:46:52;35.93;;;18.73;;
4420;SDS011;11824;51.178;13.546;2023-01-09T05:49:19;29.13;;;16.77;;
4420;SDS011;11824;51.178;13.546;2023-01-09T05:51:47;33.80;;;17.43;;
4420;SDS011;11824;51.178;13.546;2023-01-09T05:54:15;29.07;;;16.90;;
4420;SDS011;11824;51.178;13.546;2023-01-09T05:56:42;32.40;;;15.80;;
4420;SDS011;11824;51.178;13.546;2023-01-09T05:59:09;33.73;;;18.30;;
4420;SDS011;11824;51.178;13.546;2023-01-09T06:01:37;34.57;;;17.43;;
4420;SDS011;11824;51.178;13.546;2023-01-09T06:04:04;32.57;;;18.47;;
4420;SDS011;11824;51.178;13.546;2023-01-09T06:06:31;38.57;;;17.90;;
4420;SDS011;11824;51.178;13.546;2023-01-09T06:08:59;33.03;;;16.50;;
4420;SDS011;11824;51.178;13.546;2023-01-09T06:11:28;32.70;;;18.10;;
4420;SDS011;11824;51.178;13.546;2023-01-09T06:13:55;32.83;;;17.13;;
4420;SDS011;11824;51.178;13.546;2023-01-09T06:16:22;37.20;;;19.33;;
4420;SDS011;11824;51.178;13.546;2023-01-09T06:18:49;27.47;;;16.17;;
4420;SDS011;11824;51.178;13.546;2023-01-09T06:21:17;32.07;;;18.20;;
4420;SDS011;11824;51.178;13.546;2023-01-09T06:23:44;34.10;;;18.27;;
4420;SDS011;11824;51.178;13.546;2023-01-09T06:26:12;34.00;;;16.77;;
4420;SDS011;11824;51.178;13.546;2023-01-09T06:28:39;24.97;;;15.87;;
4420;SDS011;11824;51.178;13.546;2023-01-09T06:31:09;27.97;;;15.47;;
4420;SDS011;11824;51.178;13.546;2023-01-09T06:33:37;30.63;;;16.77;;
4420;SDS011;11824;51.178;13.546;2023-01-09T06:36:05;26.43;;;15.30;;
4420;SDS011;11824;51.178;13.546;2023-01-09T06:38:32;27.60;;;16.33;;
4420;SDS011;11824;51.178;13.546;2023-01-09T06:41:00;27.70;;;15.87;;
4420;SDS011;11824;51.178;13.546;2023-01-09T06:43:28;34.20;;;16.97;;
4420;SDS011;11824;51.178;13.546;2023-01-09T06:45:55;31.63;;;17.17;;
4420;SDS011;11824;51.178;13.546;2023-01-09T06:48:23;24.17;;;13.83;;
4420;SDS011;11824;51.178;13.546;2023-01-09T06:50:50;32.20;;;16.57;;
4420;SDS011;11824;51.178;13.546;2023-01-09T06:53:18;28.57;;;15.07;;
4420;SDS011;11824;51.178;13.546;2023-01-09T06:55:46;30.67;;;14.40;;
4420;SDS011;11824;51.178;13.546;2023-01-09T06:58:13;30.90;;;13.70;;
4420;SDS011;11824;51.178;13.546;2023-01-09T07:00:41;27.90;;;13.97;;
4420;SDS011;11824;51.178;13.546;2023-01-09T07:03:08;24.77;;;14.10;;
4420;SDS011;11824;51.178;13.546;2023-01-09T07:05:37;28.90;;;15.47;;
4420;SDS011;11824;51.178;13.546;2023-01-09T07:08:06;22.37;;;13.20;;
4420;SDS011;11824;51.178;13.546;2023-01-09T07:10:34;25.50;;;13.93;;
4420;SDS011;11824;51.178;13.546;2023-01-09T07:13:01;24.80;;;13.80;;
4420;SDS011;11824;51.178;13.546;2023-01-09T07:15:29;22.70;;;13.07;;
4420;SDS011;11824;51.178;13.546;2023-01-09T07:17:58;23.03;;;12.37;;
4420;SDS011;11824;51.178;13.546;2023-01-09T07:20:28;22.47;;;13.10;;
4420;SDS011;11824;51.178;13.546;2023-01-09T07:22:56;19.33;;;11.30;;
4420;SDS011;11824;51.178;13.546;2023-01-09T07:25:29;19.43;;;12.27;;
4420;SDS011;11824;51.178;13.546;2023-01-09T07:28:05;20.80;;;12.13;;
4420;SDS011;11824;51.178;13.546;2023-01-09T07:30:34;19.03;;;10.17;;
4420;SDS011;11824;51.178;13.546;2023-01-09T07:33:03;23.50;;;12.10;;
4420;SDS011;11824;51.178;13.546;2023-01-09T07:35:30;23.37;;;12.30;;
4420;SDS011;11824;51.178;13.546;2023-01-09T07:37:58;22.97;;;11.90;;
4420;SDS011;11824;51.178;13.546;2023-01-09T07:40:25;20.17;;;11.57;;
4420;SDS011;11824;51.178;13.546;2023-01-09T07:42:52;16.83;;;10.33;;
4420;SDS011;11824;51.178;13.546;2023-01-09T07:45:20;20.87;;;11.40;;
4420;SDS011;11824;51.178;13.546;2023-01-09T07:47:47;16.90;;;10.43;;
4420;SDS011;11824;51.178;13.546;2023-01-09T07:50:17;20.60;;;11.50;;
4420;SDS011;11824;51.178;13.546;2023-01-09T07:52:45;19.60;;;11.13;;
4420;SDS011;11824;51.178;13.546;2023-01-09T07:55:12;19.83;;;10.83;;
4420;SDS011;11824;51.178;13.546;2023-01-09T07:57:42;18.60;;;10.80;;
4420;SDS011;11824;51.178;13.546;2023-01-09T08:00:14;23.03;;;11.23;;
4420;SDS011;11824;51.178;13.546;2023-01-09T08:02:45;18.07;;;9.87;;
4420;SDS011;11824;51.178;13.546;2023-01-09T08:05:20;15.53;;;9.47;;
4420;SDS011;11824;51.178;13.546;2023-01-09T08:07:47;14.47;;;9.40;;
4420;SDS011;11824;51.178;13.546;2023-01-09T08:10:16;23.73;;;9.50;;
4420;SDS011;11824;51.178;13.546;2023-01-09T08:12:44;12.83;;;9.40;;
4420;SDS011;11824;51.178;13.546;2023-01-09T08:15:12;17.53;;;10.10;;
4420;SDS011;11824;51.178;13.546;2023-01-09T08:17:40;19.07;;;10.47;;
4420;SDS011;11824;51.178;13.546;2023-01-09T08:20:09;16.47;;;8.77;;
4420;SDS011;11824;51.178;13.546;2023-01-09T08:22:41;12.30;;;7.50;;
4420;SDS011;11824;51.178;13.546;2023-01-09T08:25:14;12.27;;;7.30;;
4420;SDS011;11824;51.178;13.546;2023-01-09T08:27:42;14.80;;;9.17;;
4420;SDS011;11824;51.178;13.546;2023-01-09T08:30:09;14.37;;;9.27;;
4420;SDS011;11824;51.178;13.546;2023-01-09T08:32:37;12.67;;;8.27;;
4420;SDS011;11824;51.178;13.546;2023-01-09T08:35:06;11.77;;;7.17;;
4420;SDS011;11824;51.178;13.546;2023-01-09T08:37:34;11.97;;;6.93;;
4420;SDS011;11824;51.178;13.546;2023-01-09T08:40:02;11.07;;;7.00;;
4420;SDS011;11824;51.178;13.546;2023-01-09T08:42:30;15.13;;;8.43;;
4420;SDS011;11824;51.178;13.546;2023-01-09T08:45:15;13.27;;;7.47;;
4420;SDS011;11824;51.178;13.546;2023-01-09T08:48:01;14.40;;;10.13;;
4420;SDS011;11824;51.178;13.546;2023-01-09T08:50:28;13.23;;;8.40;;
4420;SDS011;11824;51.178;13.546;2023-01-09T08:52:55;15.17;;;8.40;;
4420;SDS011;11824;51.178;13.546;2023-01-09T08:55:23;13.30;;;8.00;;
4420;SDS011;11824;51.178;13.546;2023-01-09T08:57:51;10.40;;;6.97;;
4420;SDS011;11824;51.178;13.546;2023-01-09T09:00:20;10.50;;;6.87;;
4420;SDS011;11824;51.178;13.546;2023-01-09T09:02:49;14.57;;;10.47;;
4420;SDS011;11824;51.178;13.546;2023-01-09T09:05:17;9.27;;;6.70;;
4420;SDS011;11824;51.178;13.546;2023-01-09T09:07:46;9.33;;;6.20;;
4420;SDS011;11824;51.178;13.546;2023-01-09T09:10:14;8.67;;;6.13;;
4420;SDS011;11824;51.178;13.546;2023-01-09T09:12:42;10.10;;;6.80;;
4420;SDS011;11824;51.178;13.546;2023-01-09T09:15:10;11.10;;;6.77;;
4420;SDS011;11824;51.178;13.546;2023-01-09T09:17:37;17.33;;;6.10;;
4420;SDS011;11824;51.178;13.546;2023-01-09T09:20:06;8.40;;;5.83;;
4420;SDS011;11824;51.178;13.546;2023-01-09T09:22:34;12.80;;;10.23;;
4420;SDS011;11824;51.178;13.546;2023-01-09T09:25:02;13.60;;;11.30;;
4420;SDS011;11824;51.178;13.546;2023-01-09T09:27:30;18.30;;;11.30;;
4420;SDS011;11824;51.178;13.546;2023-01-09T09:29:58;8.77;;;6.10;;
4420;SDS011;11824;51.178;13.546;2023-01-09T09:32:25;7.13;;;5.53;;
4420;SDS011;11824;51.178;13.546;2023-01-09T09:34:53;8.27;;;5.30;;
4420;SDS011;11824;51.178;13.546;2023-01-09T09:37:20;5.77;;;4.90;;
4420;SDS011;11824;51.178;13.546;2023-01-09T09:39:47;5.00;;;4.50;;
4420;SDS011;11824;51.178;13.546;2023-01-09T09:42:22;4.23;;;3.83;;
4420;SDS011;11824;51.178;13.546;2023-01-09T09:45:31;11.13;;;4.17;;
4420;SDS011;11824;51.178;13.546;2023-01-09T09:48:15;4.87;;;3.23;;
4420;SDS011;11824;51.178;13.546;2023-01-09T09:53:47;3.50;;;3.20;;
4420;SDS011;11824;51.178;13.546;2023-01-09T09:56:20;4.20;;;3.60;;
4420;SDS011;11824;51.178;13.546;2023-01-09T09:58:49;5.30;;;3.03;;
4420;SDS011;11824;51.178;13.546;2023-01-09T10:04:08;3.23;;;2.90;;
4420;SDS011;11824;51.178;13.546;2023-01-09T10:06:39;7.70;;;4.00;;
4420;SDS011;11824;51.178;13.546;2023-01-09T10:09:11;4.73;;;3.17;;
4420;SDS011;11824;51.178;13.546;2023-01-09T10:11:46;2.53;;;2.33;;
4420;SDS011;11824;51.178;13.546;2023-01-09T10:14:20;6.57;;;4.80;;
4420;SDS011;11824;51.178;13.546;2023-01-09T10:16:57;3.77;;;2.60;;
4420;SDS011;11824;51.178;13.546;2023-01-09T10:19:41;4.83;;;3.13;;
4420;SDS011;11824;51.178;13.546;2023-01-09T10:22:31;5.10;;;3.33;;
4420;SDS011;11824;51.178;13.546;2023-01-09T10:25:13;6.80;;;3.50;;
4420;SDS011;11824;51.178;13.546;2023-01-09T10:28:06;3.17;;;2.90;;
4420;SDS011;11824;51.178;13.546;2023-01-09T10:30:43;11.90;;;6.30;;
4420;SDS011;11824;51.178;13.546;2023-01-09T10:33:19;5.80;;;4.63;;
4420;SDS011;11824;51.178;13.546;2023-01-09T10:36:04;4.60;;;4.00;;
4420;SDS011;11824;51.178;13.546;2023-01-09T10:38:50;8.50;;;6.20;;
4420;SDS011;11824;51.178;13.546;2023-01-09T10:41:20;3.50;;;3.00;;
4420;SDS011;11824;51.178;13.546;2023-01-09T10:43:51;5.40;;;4.40;;
4420;SDS011;11824;51.178;13.546;2023-01-09T10:46:22;2.80;;;2.60;;
4420;SDS011;11824;51.178;13.546;2023-01-09T10:48:55;2.63;;;2.23;;
4420;SDS011;11824;51.178;13.546;2023-01-09T10:51:26;3.50;;;2.90;;
4420;SDS011;11824;51.178;13.546;2023-01-09T10:53:59;2.07;;;1.90;;
4420;SDS011;11824;51.178;13.546;2023-01-09T10:56:28;2.17;;;1.77;;
4420;SDS011;11824;51.178;13.546;2023-01-09T10:59:01;1.50;;;1.40;;
4420;SDS011;11824;51.178;13.546;2023-01-09T11:01:29;2.30;;;2.10;;
4420;SDS011;11824;51.178;13.546;2023-01-09T11:03:59;2.13;;;2.03;;
4420;SDS011;11824;51.178;13.546;2023-01-09T11:06:28;1.93;;;1.83;;
4420;SDS011;11824;51.178;13.546;2023-01-09T11:09:02;1.23;;;1.20;;
4420;SDS011;11824;51.178;13.546;2023-01-09T11:11:32;2.03;;;1.70;;
4420;SDS011;11824;51.178;13.546;2023-01-09T11:14:04;3.13;;;2.33;;
4420;SDS011;11824;51.178;13.546;2023-01-09T11:16:37;6.10;;;3.23;;
4420;SDS011;11824;51.178;13.546;2023-01-09T11:19:15;2.73;;;2.53;;
4420;SDS011;11824;51.178;13.546;2023-01-09T11:21:43;3.50;;;2.03;;
4420;SDS011;11824;51.178;13.546;2023-01-09T11:24:23;2.13;;;1.80;;
4420;SDS011;11824;51.178;13.546;2023-01-09T11:30:09;1.40;;;1.30;;
4420;SDS011;11824;51.178;13.546;2023-01-09T11:32:41;1.07;;;1.07;;
4420;SDS011;11824;51.178;13.546;2023-01-09T11:35:16;1.70;;;1.23;;
4420;SDS011;11824;51.178;13.546;2023-01-09T11:37:58;2.00;;;1.67;;
4420;SDS011;11824;51.178;13.546;2023-01-09T11:40:34;1.57;;;1.03;;
4420;SDS011;11824;51.178;13.546;2023-01-09T11:43:12;1.10;;;1.00;;
4420;SDS011;11824;51.178;13.546;2023-01-09T11:45:44;0.90;;;0.90;;
4420;SDS011;11824;51.178;13.546;2023-01-09T11:48:33;0.77;;;0.77;;
4420;SDS011;11824;51.178;13.546;2023-01-09T11:51:15;3.37;;;1.50;;
4420;SDS011;11824;51.178;13.546;2023-01-09T11:53:50;1.53;;;1.40;;
4420;SDS011;11824;51.178;13.546;2023-01-09T11:56:22;2.67;;;0.80;;
4420;SDS011;11824;51.178;13.546;2023-01-09T11:58:49;1.37;;;1.27;;
4420;SDS011;11824;51.178;13.546;2023-01-09T12:01:35;0.70;;;0.70;;
4420;SDS011;11824;51.178;13.546;2023-01-09T12:04:20;2.00;;;0.87;;
4420;SDS011;11824;51.178;13.546;2023-01-09T12:06:59;3.33;;;0.90;;
4420;SDS011;11824;51.178;13.546;2023-01-09T12:09:45;2.60;;;0.80;;
4420;SDS011;11824;51.178;13.546;2023-01-09T12:12:24;0.70;;;0.70;;
4420;SDS011;11824;51.178;13.546;2023-01-09T12:15:00;2.10;;;0.93;;
4420;SDS011;11824;51.178;13.546;2023-01-09T12:17:51;4.93;;;1.03;;
4420;SDS011;11824;51.178;13.546;2023-01-09T12:20:39;2.03;;;0.90;;
4420;SDS011;11824;51.178;13.546;2023-01-09T12:23:22;2.30;;;0.70;;
4420;SDS011;11824;51.178;13.546;2023-01-09T12:26:00;1.83;;;0.90;;
4420;SDS011;11824;51.178;13.546;2023-01-09T12:28:48;2.80;;;1.20;;
4420;SDS011;11824;51.178;13.546;2023-01-09T12:31:42;1.77;;;0.80;;
4420;SDS011;11824;51.178;13.546;2023-01-09T12:34:26;1.13;;;0.93;;
4420;SDS011;11824;51.178;13.546;2023-01-09T12:37:12;2.83;;;1.07;;
4420;SDS011;11824;51.178;13.546;2023-01-09T12:39:54;1.73;;;1.07;;
4420;SDS011;11824;51.178;13.546;2023-01-09T12:42:33;0.63;;;0.60;;
4420;SDS011;11824;51.178;13.546;2023-01-09T12:45:20;4.50;;;1.20;;
4420;SDS011;11824;51.178;13.546;2023-01-09T12:48:05;2.03;;;0.90;;
4420;SDS011;11824;51.178;13.546;2023-01-09T12:50:49;144.73;;;42.80;;
4420;SDS011;11824;51.178;13.546;2023-01-09T12:53:28;8.80;;;1.77;;
4420;SDS011;11824;51.178;13.546;2023-01-09T12:56:02;3.00;;;1.27;;
4420;SDS011;11824;51.178;13.546;2023-01-09T12:58:35;4.70;;;1.00;;
4420;SDS011;11824;51.178;13.546;2023-01-09T13:01:07;2.97;;;0.90;;
4420;SDS011;11824;51.178;13.546;2023-01-09T13:03:40;5.10;;;1.67;;
4420;SDS011;11824;51.178;13.546;2023-01-09T13:06:13;10.77;;;5.03;;
4420;SDS011;11824;51.178;13.546;2023-01-09T13:08:44;6.97;;;4.60;;
4420;SDS011;11824;51.178;13.546;2023-01-09T13:11:19;12.70;;;4.60;;
4420;SDS011;11824;51.178;13.546;2023-01-09T13:13:53;2.27;;;1.40;;
4420;SDS011;11824;51.178;13.546;2023-01-09T13:16:24;2.73;;;2.20;;
4420;SDS011;11824;51.178;13.546;2023-01-09T13:18:55;4.97;;;2.63;;
4420;SDS011;11824;51.178;13.546;2023-01-09T13:21:28;1.70;;;1.30;;
4420;SDS011;11824;51.178;13.546;2023-01-09T13:23:57;1.50;;;0.80;;
4420;SDS011;11824;51.178;13.546;2023-01-09T13:26:29;7.20;;;1.00;;
4420;SDS011;11824;51.178;13.546;2023-01-09T13:29:05;10.70;;;1.17;;
4420;SDS011;11824;51.178;13.546;2023-01-09T13:31:40;0.93;;;0.70;;
4420;SDS011;11824;51.178;13.546;2023-01-09T13:34:15;0.90;;;0.80;;
4420;SDS011;11824;51.178;13.546;2023-01-09T13:36:48;6.33;;;1.20;;
4420;SDS011;11824;51.178;13.546;2023-01-09T13:39:21;1.80;;;1.40;;
4420;SDS011;11824;51.178;13.546;2023-01-09T13:41:51;6.00;;;2.07;;
4420;SDS011;11824;51.178;13.546;2023-01-09T13:44:40;10.80;;;2.17;;
4420;SDS011;11824;51.178;13.546;2023-01-09T13:47:13;9.27;;;2.67;;
4420;SDS011;11824;51.178;13.546;2023-01-09T13:49:56;10.67;;;1.43;;
4420;SDS011;11824;51.178;13.546;2023-01-09T13:52:46;3.67;;;2.03;;
4420;SDS011;11824;51.178;13.546;2023-01-09T13:55:24;4.10;;;2.10;;
4420;SDS011;11824;51.178;13.546;2023-01-09T13:58:19;2.50;;;1.33;;
4420;SDS011;11824;51.178;13.546;2023-01-09T14:00:50;4.80;;;2.33;;
4420;SDS011;11824;51.178;13.546;2023-01-09T14:03:21;2.77;;;2.53;;
4420;SDS011;11824;51.178;13.546;2023-01-09T14:08:49;5.97;;;3.30;;
4420;SDS011;11824;51.178;13.546;2023-01-09T14:11:43;11.83;;;6.03;;
4420;SDS011;11824;51.178;13.546;2023-01-09T14:14:19;2.30;;;1.60;;
4420;SDS011;11824;51.178;13.546;2023-01-09T14:16:53;2.93;;;1.60;;
4420;SDS011;11824;51.178;13.546;2023-01-09T14:19:26;3.13;;;1.40;;
4420;SDS011;11824;51.178;13.546;2023-01-09T14:22:00;2.20;;;1.10;;
4420;SDS011;11824;51.178;13.546;2023-01-09T14:24:30;3.90;;;0.90;;
4420;SDS011;11824;51.178;13.546;2023-01-09T14:27:06;3.33;;;1.30;;
4420;SDS011;11824;51.178;13.546;2023-01-09T14:30:27;5.90;;;1.97;;
4420;SDS011;11824;51.178;13.546;2023-01-09T14:32:56;1.87;;;1.70;;
4420;SDS011;11824;51.178;13.546;2023-01-09T14:35:26;5.23;;;3.27;;
4420;SDS011;11824;51.178;13.546;2023-01-09T14:38:04;3.00;;;2.70;;
4420;SDS011;11824;51.178;13.546;2023-01-09T14:40:49;5.10;;;3.27;;
4420;SDS011;11824;51.178;13.546;2023-01-09T14:43:22;14.77;;;7.00;;
4420;SDS011;11824;51.178;13.546;2023-01-09T14:45:57;5.60;;;3.13;;
4420;SDS011;11824;51.178;13.546;2023-01-09T14:48:29;4.37;;;3.70;;
4420;SDS011;11824;51.178;13.546;2023-01-09T14:50:58;8.53;;;4.30;;
4420;SDS011;11824;51.178;13.546;2023-01-09T14:53:27;3.67;;;2.37;;
4420;SDS011;11824;51.178;13.546;2023-01-09T14:55:57;5.23;;;3.27;;
4420;SDS011;11824;51.178;13.546;2023-01-09T14:58:26;1.53;;;1.33;;
4420;SDS011;11824;51.178;13.546;2023-01-09T15:00:58;1.27;;;1.00;;
4420;SDS011;11824;51.178;13.546;2023-01-09T15:03:28;5.47;;;2.37;;
4420;SDS011;11824;51.178;13.546;2023-01-09T15:05:59;1.67;;;1.17;;
4420;SDS011;11824;51.178;13.546;2023-01-09T15:08:27;2.33;;;2.13;;
4420;SDS011;11824;51.178;13.546;2023-01-09T15:10:56;6.50;;;2.37;;
4420;SDS011;11824;51.178;13.546;2023-01-09T15:13:27;8.27;;;3.63;;